Time;durP1;ratioP1;P1;durP2;ratioP2;P2;SDS_P1;SDS_P2;PMS_P1;PMS_P2;Temp;Humidity;BMP_temperature;BMP_pressure;BME280_temperature;BME280_humidity;BME280_pressure;Samples;Min_cycle;Max_cycle;Signal;HPM_P1;HPM_P2
2023/10/24 00:00:39;;;;;;;12.00;3.83;;;;;;;11.67;100.00;100009.00;4973934;28;20030;-66
2023/10/24 00:03:04;;;;;;;9.98;3.63;;;;;;;11.69;100.00;100013.00;4979076;28;20702;-66
2023/10/24 00:05:30;;;;;;;11.25;3.33;;;;;;;11.73;100.00;100015.25;4980516;28;20030;-65
2023/10/24 00:07:56;;;;;;;11.00;3.50;;;;;;;11.73;100.00;100013.47;4977526;28;20054;-66
2023/10/24 00:10:22;;;;;;;9.68;3.70;;;;;;;11.74;100.00;100011.69;4962360;28;20073;-66
2023/10/24 00:12:48;;;;;;;12.18;3.70;;;;;;;11.66;100.00;100012.59;4962049;28;20096;-66
2023/10/24 00:15:13;;;;;;;5.18;3.15;;;;;;;11.73;100.00;100018.66;4981541;28;20432;-66
2023/10/24 00:17:39;;;;;;;8.55;3.72;;;;;;;11.66;100.00;100012.59;4979793;28;20456;-66
2023/10/24 00:20:05;;;;;;;6.75;3.08;;;;;;;11.72;100.00;100022.25;4982702;28;20042;-66
2023/10/24 00:22:30;;;;;;;12.05;3.45;;;;;;;11.66;100.00;100023.78;4978496;28;20101;-66
2023/10/24 00:24:55;;;;;;;6.88;3.25;;;;;;;11.62;100.00;100021.72;4976466;28;20045;-66
2023/10/24 00:27:21;;;;;;;11.18;3.58;;;;;;;11.56;100.00;100022.44;4968320;28;20034;-66
2023/10/24 00:29:46;;;;;;;14.50;4.70;;;;;;;11.57;100.00;100018.88;4963079;28;20511;-66
2023/10/24 00:32:12;;;;;;;8.20;3.38;;;;;;;11.67;100.00;100006.41;4947648;28;20038;-66
2023/10/24 00:34:38;;;;;;;8.57;3.40;;;;;;;11.58;100.00;100003.09;4967249;28;20038;-66
2023/10/24 00:37:04;;;;;;;8.32;3.00;;;;;;;11.67;100.00;100009.81;4956800;28;20050;-67
2023/10/24 00:39:29;;;;;;;10.07;3.15;;;;;;;11.61;100.00;100005.34;4948148;28;20035;-66
2023/10/24 00:41:54;;;;;;;7.00;3.17;;;;;;;11.59;100.00;100009.91;4950272;28;20035;-67
2023/10/24 00:44:20;;;;;;;6.43;3.17;;;;;;;11.52;100.00;100018.63;4982821;28;20038;-66
2023/10/24 00:46:46;;;;;;;9.43;3.17;;;;;;;11.54;100.00;100017.44;4960585;28;20043;-67
2023/10/24 00:49:12;;;;;;;8.05;3.00;;;;;;;11.52;100.00;100014.22;4963786;28;20772;-66
2023/10/24 00:51:38;;;;;;;7.15;3.13;;;;;;;11.56;100.00;100005.06;4983685;28;20038;-66
2023/10/24 00:54:04;;;;;;;6.03;3.25;;;;;;;11.56;100.00;100002.47;4966671;28;20126;-66
2023/10/24 00:56:31;;;;;;;8.40;3.03;;;;;;;11.47;100.00;100006.16;4966622;28;20523;-66
2023/10/24 00:58:57;;;;;;;9.75;3.13;;;;;;;11.45;100.00;100010.72;4951750;28;20038;-66
2023/10/24 01:01:23;;;;;;;9.75;3.55;;;;;;;11.54;100.00;100019.22;4966623;28;20425;-66
2023/10/24 01:03:49;;;;;;;11.20;3.65;;;;;;;11.48;100.00;100025.94;4962412;28;20070;-66
2023/10/24 01:06:18;;;;;;;10.15;3.20;;;;;;;11.46;100.00;100026.13;4963101;28;20047;-66
2023/10/24 01:08:43;;;;;;;8.38;2.70;;;;;;;11.50;100.00;100040.34;4984133;28;20030;-66
2023/10/24 01:11:09;;;;;;;5.38;2.55;;;;;;;11.45;100.00;100041.88;4964331;28;20101;-66
2023/10/24 01:13:35;;;;;;;7.80;2.70;;;;;;;11.49;100.00;100043.94;4968441;28;20135;-66
2023/10/24 01:16:00;;;;;;;8.60;3.30;;;;;;;11.59;100.00;100038.47;4980087;28;20049;-66
2023/10/24 01:18:26;;;;;;;7.63;2.30;;;;;;;11.55;100.00;100041.63;4983537;28;20046;-66
2023/10/24 01:21:07;;;;;;;8.77;2.50;;;;;;;11.65;100.00;100024.75;4954209;28;20133;-66
2023/10/24 01:23:32;;;;;;;5.15;2.55;;;;;;;11.54;100.00;100030.41;4965086;28;20038;-66
2023/10/24 01:25:58;;;;;;;8.52;2.45;;;;;;;11.52;100.00;100026.41;4983846;28;20498;-66
2023/10/24 01:28:25;;;;;;;7.90;2.05;;;;;;;11.49;100.00;100020.59;4981727;28;20031;-66
2023/10/24 01:30:51;;;;;;;5.68;1.88;;;;;;;11.46;100.00;100023.53;4954777;28;20052;-66
2023/10/24 01:33:16;;;;;;;10.90;2.70;;;;;;;11.52;100.00;100029.00;4979712;28;20404;-66
2023/10/24 01:35:42;;;;;;;10.48;2.58;;;;;;;11.48;100.00;100024.16;4977486;28;20105;-66
2023/10/24 01:38:07;;;;;;;6.78;2.30;;;;;;;11.48;100.00;100029.34;4963104;28;20034;-66
2023/10/24 01:40:33;;;;;;;4.70;2.10;;;;;;;11.53;100.00;100023.63;4981316;28;20041;-66
2023/10/24 01:42:58;;;;;;;12.10;3.35;;;;;;;11.48;100.00;100023.34;4965632;28;20038;-66
2023/10/24 01:45:24;;;;;;;10.27;2.08;;;;;;;11.56;100.00;100028.44;4952600;28;20034;-66
2023/10/24 01:47:50;;;;;;;6.00;2.22;;;;;;;11.65;100.00;100018.78;4951585;28;20084;-66
2023/10/24 01:50:16;;;;;;;4.60;1.83;;;;;;;11.57;100.00;100032.66;4967620;28;20041;-66
2023/10/24 01:52:42;;;;;;;4.07;1.92;;;;;;;11.59;100.00;100027.28;4967753;28;20046;-66
2023/10/24 01:55:07;;;;;;;11.80;2.10;;;;;;;11.55;100.00;100026.06;4951694;28;20030;-67
2023/10/24 01:57:33;;;;;;;8.45;2.38;;;;;;;11.50;100.00;100016.19;4962181;28;20042;-66
2023/10/24 01:59:58;;;;;;;10.23;1.80;;;;;;;11.48;100.00;100023.34;4965000;28;20030;-66
2023/10/24 02:02:26;;;;;;;10.05;2.22;;;;;;;11.47;100.00;100012.19;4967546;28;20488;-67
2023/10/24 02:04:51;;;;;;;3.95;1.60;;;;;;;11.45;100.00;100021.94;4966831;28;20084;-67
2023/10/24 02:07:19;;;;;;;3.72;1.70;;;;;;;11.45;100.00;100021.13;4980468;28;20501;-66
2023/10/24 02:09:45;;;;;;;4.60;1.50;;;;;;;11.47;100.00;100013.94;4962955;28;20034;-66
2023/10/24 02:12:10;;;;;;;4.60;1.85;;;;;;;11.45;100.00;100026.31;4979930;23;20454;-66
2023/10/24 02:14:37;;;;;;;6.47;1.70;;;;;;;11.45;100.00;100027.13;4982024;28;20041;-66
2023/10/24 02:17:02;;;;;;;9.02;1.77;;;;;;;11.45;100.00;100024.53;4986130;28;20038;-67
2023/10/24 02:19:29;;;;;;;8.13;1.83;;;;;;;11.46;100.00;100033.13;4980795;28;20460;-66
2023/10/24 02:21:54;;;;;;;8.15;1.85;;;;;;;11.43;100.00;100038.66;4957976;28;20038;-67
2023/10/24 02:24:20;;;;;;;4.50;1.90;;;;;;;11.43;100.00;100043.84;4982550;28;20049;-66
2023/10/24 02:26:46;;;;;;;5.45;1.90;;;;;;;11.57;100.00;100042.25;4966309;28;20048;-67
2023/10/24 02:29:11;;;;;;;7.82;1.75;;;;;;;11.50;100.00;100029.97;4983968;28;20608;-67
2023/10/24 02:31:37;;;;;;;3.50;1.52;;;;;;;11.61;100.00;100031.31;4969401;28;20038;-66
2023/10/24 02:34:02;;;;;;;3.28;1.40;;;;;;;11.56;100.00;100025.84;4982016;28;20042;-66
2023/10/24 02:36:28;;;;;;;3.83;1.55;;;;;;;11.64;100.00;100024.94;4982632;28;20053;-66
2023/10/24 02:38:53;;;;;;;4.40;1.45;;;;;;;11.72;100.00;100027.44;4979780;28;20038;-67
2023/10/24 02:41:20;;;;;;;3.50;1.50;;;;;;;11.65;100.00;100036.94;4985574;28;20038;-66
2023/10/24 02:43:45;;;;;;;5.82;1.30;;;;;;;11.59;100.00;100040.28;4969341;28;20052;-66
2023/10/24 02:46:11;;;;;;;4.07;1.90;;;;;;;11.54;100.00;100043.41;4968082;28;20034;-66
2023/10/24 02:48:37;;;;;;;2.53;1.40;;;;;;;11.63;100.00;100044.13;4967447;28;20480;-66
2023/10/24 02:51:02;;;;;;;2.63;1.40;;;;;;;11.61;100.00;100048.69;4983688;28;20045;-66
2023/10/24 02:53:28;;;;;;;2.83;1.08;;;;;;;11.64;100.00;100051.72;4967144;28;20042;-66
2023/10/24 02:55:53;;;;;;;3.45;1.40;;;;;;;11.60;100.00;100049.66;4967865;28;20038;-66
2023/10/24 02:58:19;;;;;;;2.25;0.95;;;;;;;11.56;100.00;100048.41;4966621;28;20050;-66
2023/10/24 03:00:45;;;;;;;3.53;1.40;;;;;;;11.50;100.00;100036.97;4965970;28;20071;-66
2023/10/24 03:03:11;;;;;;;3.15;1.20;;;;;;;11.47;100.00;100027.75;4981937;28;20037;-66
2023/10/24 03:05:37;;;;;;;1.60;0.98;;;;;;;11.48;100.00;100038.94;4984019;28;20034;-67
2023/10/24 03:08:04;;;;;;;2.08;0.85;;;;;;;11.58;100.00;100034.25;4983664;28;20054;-67
2023/10/24 03:10:29;;;;;;;1.13;1.02;;;;;;;11.61;100.00;100027.91;4985600;28;20046;-66
2023/10/24 03:12:56;;;;;;;1.30;1.00;;;;;;;11.68;100.00;100026.22;4982606;28;20137;-67
2023/10/24 03:15:21;;;;;;;1.73;0.93;;;;;;;11.58;100.00;100028.25;4968537;28;20038;-66
2023/10/24 03:17:47;;;;;;;3.72;0.82;;;;;;;11.62;100.00;100027.75;4981986;28;20046;-67
2023/10/24 03:20:13;;;;;;;2.30;0.95;;;;;;;11.64;100.00;100028.38;4968359;28;20034;-67
2023/10/24 03:22:39;;;;;;;5.32;1.13;;;;;;;11.63;100.00;100023.34;4979687;28;20412;-67
2023/10/24 03:25:05;;;;;;;2.15;0.75;;;;;;;11.66;100.00;100036.78;4968337;28;20022;-67
2023/10/24 03:27:31;;;;;;;1.65;0.93;;;;;;;11.62;100.00;100045.91;4967740;28;20046;-67
2023/10/24 03:29:56;;;;;;;2.28;0.95;;;;;;;11.68;100.00;100050.38;4982460;28;20026;-67
2023/10/24 03:32:22;;;;;;;1.27;0.90;;;;;;;11.66;100.00;100041.16;4981366;28;20070;-66
2023/10/24 03:34:47;;;;;;;4.43;1.27;;;;;;;11.62;100.00;100039.91;4967404;28;20037;-67
2023/10/24 03:37:13;;;;;;;1.65;0.90;;;;;;;11.59;100.00;100055.84;4978169;28;20497;-66
2023/10/24 03:39:38;;;;;;;1.45;0.88;;;;;;;11.66;100.00;100054.94;4967551;28;20050;-66
2023/10/24 03:42:04;;;;;;;2.40;1.08;;;;;;;11.62;100.00;100047.69;4967869;28;20041;-66
2023/10/24 03:44:29;;;;;;;4.35;1.40;;;;;;;11.72;100.00;100031.84;4982297;28;20042;-67
2023/10/24 03:46:55;;;;;;;5.78;1.08;;;;;;;11.76;100.00;100033.09;4982971;28;20027;-67
2023/10/24 03:49:20;;;;;;;3.83;1.27;;;;;;;11.77;100.00;100011.31;4995156;28;20050;-67
2023/10/24 03:51:49;;;;;;;3.80;1.27;;;;;;;11.59;100.00;99996.94;4981930;28;20049;-67
2023/10/24 03:54:14;;;;;;;4.72;1.08;;;;;;;11.50;100.00;99993.63;4978874;28;20556;-66
2023/10/24 03:56:41;;;;;;;2.67;1.10;;;;;;;11.47;100.00;100009.56;4983918;28;20026;-66
2023/10/24 03:59:07;;;;;;;1.55;1.10;;;;;;;11.51;100.00;100025.59;4980643;28;20053;-67
2023/10/24 04:01:35;;;;;;;4.57;1.20;;;;;;;11.48;100.00;100026.75;4983712;28;20046;-66
2023/10/24 04:04:01;;;;;;;4.10;0.90;;;;;;;11.53;100.00;100013.25;4983254;28;20050;-67
2023/10/24 04:06:27;;;;;;;6.78;1.38;;;;;;;11.58;100.00;100010.09;4981266;28;20037;-67
2023/10/24 04:08:53;;;;;;;2.90;1.30;;;;;;;11.64;100.00;100019.75;4980816;28;20038;-67
2023/10/24 04:11:18;;;;;;;1.35;1.08;;;;;;;11.60;100.00;100019.31;4981224;28;20041;-66
2023/10/24 04:13:45;;;;;;;2.38;1.67;;;;;;;11.56;100.00;100025.03;4984946;28;20054;-66
2023/10/24 04:16:11;;;;;;;3.13;1.23;;;;;;;11.60;100.00;100026.28;4985979;28;20126;-67
2023/10/24 04:18:38;;;;;;;3.05;1.17;;;;;;;11.54;100.00;100029.63;4983549;28;20129;-67
2023/10/24 04:21:03;;;;;;;4.50;1.38;;;;;;;11.66;100.00;100026.38;4978201;28;20129;-67
2023/10/24 04:23:29;;;;;;;2.20;1.20;;;;;;;11.53;100.00;100033.19;4984028;28;20117;-67
2023/10/24 04:25:55;;;;;;;4.65;1.60;;;;;;;11.46;100.00;100030.53;4982948;28;20038;-66
2023/10/24 04:28:20;;;;;;;3.28;1.50;;;;;;;11.48;100.00;100038.94;4980917;28;20046;-66
2023/10/24 04:30:45;;;;;;;5.05;1.50;;;;;;;11.44;100.00;100046.28;4987337;28;20053;-67
2023/10/24 04:33:11;;;;;;;2.42;1.60;;;;;;;11.48;100.00;100044.13;4965500;28;20039;-67
2023/10/24 04:35:46;;;;;;;4.70;1.77;;;;;;;11.55;100.00;100034.63;4986280;28;20046;-67
2023/10/24 04:38:11;;;;;;;3.03;1.55;;;;;;;11.45;100.00;100039.28;4982354;28;20034;-67
2023/10/24 04:40:38;;;;;;;4.80;2.10;;;;;;;11.49;100.00;100040.56;4968354;28;20041;-67
2023/10/24 04:43:04;;;;;;;2.80;1.80;;;;;;;11.42;100.00;100034.47;4968170;28;20046;-66
2023/10/24 04:45:31;;;;;;;3.58;1.60;;;;;;;11.33;100.00;100030.34;4986789;28;20035;-67
2023/10/24 04:48:00;;;;;;;1.95;1.40;;;;;;;11.36;100.00;100035.16;4985761;28;20489;-66
2023/10/24 04:50:28;;;;;;;4.47;1.80;;;;;;;11.28;100.00;100038.66;4986285;28;20388;-66
2023/10/24 04:52:54;;;;;;;2.35;1.80;;;;;;;11.36;100.00;100038.59;4982529;28;20046;-66
2023/10/24 04:55:20;;;;;;;4.45;2.05;;;;;;;11.29;100.00;100038.47;4982358;28;20042;-66
2023/10/24 04:57:46;;;;;;;3.78;2.53;;;;;;;11.34;100.00;100025.00;4982958;28;20152;-66
2023/10/24 05:00:12;;;;;;;3.30;2.38;;;;;;;11.33;100.00;100022.56;4984463;28;20504;-67
2023/10/24 05:02:42;;;;;;;4.15;2.38;;;;;;;11.32;100.00;100034.75;4987673;28;20042;-67
2023/10/24 05:05:07;;;;;;;4.90;2.42;;;;;;;11.38;100.00;100033.22;4987970;28;20050;-67
2023/10/24 05:07:33;;;;;;;4.57;2.38;;;;;;;11.38;100.00;100035.81;4966842;28;20500;-67
2023/10/24 05:09:58;;;;;;;5.03;2.90;;;;;;;11.32;100.00;100031.31;4984770;28;20038;-68
2023/10/24 05:12:24;;;;;;;5.28;2.72;;;;;;;11.27;100.00;100024.88;4979747;28;20051;-67
2023/10/24 05:14:50;;;;;;;6.10;2.40;;;;;;;11.26;100.00;100035.44;4984284;28;20053;-67
2023/10/24 05:17:15;;;;;;;5.53;2.28;;;;;;;11.39;100.00;100025.22;4968721;28;20047;-67
2023/10/24 05:19:42;;;;;;;5.22;2.17;;;;;;;11.27;100.00;100021.50;4994348;28;20123;-67
2023/10/24 05:22:11;;;;;;;3.75;2.22;;;;;;;11.28;100.00;100021.31;5001526;28;20092;-67
2023/10/24 05:24:37;;;;;;;3.60;2.50;;;;;;;11.20;100.00;100023.19;5001942;28;20515;-67
2023/10/24 05:27:04;;;;;;;10.57;5.80;;;;;;;11.14;100.00;100021.31;4998831;28;20069;-67
2023/10/24 05:29:32;;;;;;;12.35;8.48;;;;;;;11.10;100.00;100020.88;5002956;28;20048;-67
2023/10/24 05:31:57;;;;;;;8.20;5.35;;;;;;;11.09;100.00;100017.47;5004503;28;20029;-67
2023/10/24 05:34:26;;;;;;;19.20;11.00;;;;;;;11.12;100.00;100021.50;4987128;28;20542;-67
2023/10/24 05:36:51;;;;;;;8.52;3.95;;;;;;;11.19;100.00;100027.56;5000799;28;20030;-67
2023/10/24 05:39:17;;;;;;;9.10;5.18;;;;;;;11.28;100.00;100033.47;5002482;28;20170;-67
2023/10/24 05:41:42;;;;;;;14.95;10.85;;;;;;;11.25;100.00;100039.03;5001620;28;20053;-68
2023/10/24 05:44:08;;;;;;;8.77;5.82;;;;;;;11.25;100.00;100045.03;4999606;28;20034;-67
2023/10/24 05:46:33;;;;;;;4.68;2.75;;;;;;;11.26;100.00;100064.81;5004271;28;20041;-67
2023/10/24 05:48:59;;;;;;;4.53;3.17;;;;;;;11.25;100.00;100052.81;4974353;28;20033;-67
2023/10/24 05:51:27;;;;;;;7.00;3.78;;;;;;;11.18;100.00;100051.09;5003876;28;20041;-67
2023/10/24 05:53:53;;;;;;;5.60;3.10;;;;;;;11.26;100.00;100048.41;5000379;28;20083;-67
2023/10/24 05:56:19;;;;;;;5.57;3.90;;;;;;;11.29;100.00;100050.66;5002956;28;20038;-67
2023/10/24 05:58:45;;;;;;;4.25;2.55;;;;;;;11.32;100.00;100044.31;5000430;28;20052;-67
2023/10/24 06:01:11;;;;;;;5.05;2.65;;;;;;;11.29;100.00;100043.69;5001480;28;20030;-67
2023/10/24 06:03:36;;;;;;;5.13;2.42;;;;;;;11.33;100.00;100044.13;5002655;28;20540;-67
2023/10/24 06:06:02;;;;;;;4.28;2.67;;;;;;;11.24;100.00;100032.22;5005260;28;20060;-67
2023/10/24 06:08:28;;;;;;;2.90;2.20;;;;;;;11.22;100.00;100021.22;5003071;28;20124;-67
2023/10/24 06:10:58;;;;;;;3.83;2.53;;;;;;;11.21;100.00;100030.78;5004361;28;20045;-67
2023/10/24 06:13:24;;;;;;;11.82;2.78;;;;;;;11.25;100.00;100020.88;5002378;28;20038;-67
2023/10/24 06:15:49;;;;;;;5.72;1.90;;;;;;;11.39;100.00;100012.25;5004125;28;20096;-67
2023/10/24 06:18:15;;;;;;;4.13;2.40;;;;;;;11.41;100.00;100005.09;5000453;28;20038;-67
2023/10/24 06:20:40;;;;;;;4.10;2.17;;;;;;;11.30;100.00;100005.53;4999685;28;20112;-67
2023/10/24 06:23:07;;;;;;;7.32;2.42;;;;;;;11.25;100.00;100015.69;4999050;28;20061;-66
2023/10/24 06:25:42;;;;;;;2.63;1.95;;;;;;;11.22;100.00;100016.81;4987542;28;20044;-67
2023/10/24 06:28:08;;;;;;;5.50;2.25;;;;;;;11.30;100.00;100018.53;5002934;28;20100;-67
2023/10/24 06:30:35;;;;;;;5.80;2.15;;;;;;;11.31;100.00;100009.75;5002423;28;20438;-67
2023/10/24 06:33:01;;;;;;;7.40;4.75;;;;;;;11.22;100.00;100018.63;4971231;28;20073;-67
2023/10/24 06:35:27;;;;;;;10.52;6.40;;;;;;;11.26;100.00;100012.09;5002759;28;20048;-67
2023/10/24 06:37:53;;;;;;;27.58;16.90;;;;;;;11.27;100.00;100022.28;5003054;28;20053;-67
2023/10/24 06:40:18;;;;;;;10.25;6.60;;;;;;;11.35;100.00;100015.41;5000482;28;20033;-67
2023/10/24 06:42:45;;;;;;;6.65;4.30;;;;;;;11.36;100.00;100023.00;4985404;28;20041;-67
2023/10/24 06:45:11;;;;;;;3.03;2.05;;;;;;;11.34;100.00;100019.78;4987727;28;20030;-67
2023/10/24 06:47:37;;;;;;;9.32;8.10;;;;;;;11.28;100.00;100017.91;5003158;28;20116;-67
2023/10/24 06:50:03;;;;;;;15.73;11.52;;;;;;;11.38;100.00;100010.66;4999789;28;20431;-68
2023/10/24 06:52:30;;;;;;;4.20;2.85;;;;;;;11.37;100.00;100016.81;5001275;28;20076;-67
2023/10/24 06:54:56;;;;;;;9.05;6.30;;;;;;;11.46;100.00;100026.13;5001031;28;20041;-67
2023/10/24 06:57:22;;;;;;;6.30;4.20;;;;;;;11.35;100.00;100018.78;5001035;28;20161;-67
2023/10/24 06:59:48;;;;;;;4.03;3.25;;;;;;;11.44;100.00;100015.13;4999546;28;20042;-67
2023/10/24 07:02:13;;;;;;;3.35;1.70;;;;;;;11.44;100.00;100015.13;5002502;28;20449;-67
2023/10/24 07:04:39;;;;;;;5.60;4.20;;;;;;;11.44;100.00;100012.53;4999980;28;20416;-67
2023/10/24 07:07:04;;;;;;;6.50;4.78;;;;;;;11.36;100.00;100025.63;4986707;28;20146;-67
2023/10/24 07:09:30;;;;;;;6.38;4.40;;;;;;;11.34;100.00;100011.19;4998226;28;20643;-67
2023/10/24 07:11:55;;;;;;;12.55;7.70;;;;;;;11.37;100.00;100011.63;5001794;28;20036;-67
2023/10/24 07:14:21;;;;;;;5.32;3.78;;;;;;;11.38;100.00;100010.66;5002787;28;20532;-67
2023/10/24 07:16:46;;;;;;;5.78;3.50;;;;;;;11.38;100.00;100013.25;5000897;28;20045;-67
2023/10/24 07:19:12;;;;;;;6.72;3.25;;;;;;;11.36;100.00;100007.44;5001667;28;20049;-67
2023/10/24 07:21:38;;;;;;;5.30;1.65;;;;;;;11.31;100.00;100007.16;5001407;28;20076;-67
2023/10/24 07:24:03;;;;;;;8.90;5.75;;;;;;;11.28;100.00;100005.75;4982351;28;20042;-67
2023/10/24 07:26:30;;;;;;;14.40;6.80;;;;;;;11.25;100.00;100010.50;5002249;28;20038;-67
2023/10/24 07:28:56;;;;;;;5.93;1.75;;;;;;;11.42;100.00;100011.91;5001941;28;20038;-67
2023/10/24 07:31:21;;;;;;;5.65;1.90;;;;;;;11.42;100.00;100014.50;4999688;28;20033;-67
2023/10/24 07:33:47;;;;;;;3.88;1.60;;;;;;;11.47;100.00;100011.34;5001857;28;20487;-67
2023/10/24 07:36:13;;;;;;;2.72;1.20;;;;;;;11.39;100.00;100011.47;5001450;28;20030;-68
2023/10/24 07:38:39;;;;;;;4.72;1.10;;;;;;;11.35;100.00;100005.03;5004253;28;20518;-67
2023/10/24 07:41:04;;;;;;;3.85;1.25;;;;;;;11.41;100.00;100012.88;5002092;28;20030;-67
2023/10/24 07:43:30;;;;;;;1.95;1.10;;;;;;;11.40;100.00;100011.28;4983350;28;20733;-67
2023/10/24 07:45:55;;;;;;;2.00;1.10;;;;;;;11.42;100.00;100011.09;5002685;28;20018;-67
2023/10/24 07:48:23;;;;;;;1.50;0.95;;;;;;;11.38;100.00;100004.66;5000819;28;20034;-67
2023/10/24 07:50:56;;;;;;;5.65;1.20;;;;;;;11.46;100.00;100012.34;5007345;28;20453;-67
2023/10/24 07:53:23;;;;;;;;;;;;;;;11.45;100.00;100018.50;5007518;28;20054;-67
2023/10/24 07:55:49;;;;;;;2.67;1.02;;;;;;;11.43;100.00;100012.69;5003877;28;19928;-67
2023/10/24 07:58:18;;;;;;;2.30;1.13;;;;;;;11.48;100.00;100013.78;5004775;28;20040;-69
2023/10/24 08:00:44;;;;;;;3.95;1.05;;;;;;;11.52;100.00;100011.63;5002231;28;20030;-67
2023/10/24 08:03:12;;;;;;;2.15;1.05;;;;;;;11.51;100.00;100012.63;5004527;28;20100;-67
2023/10/24 08:05:38;;;;;;;2.53;1.40;;;;;;;11.46;100.00;100022.72;5004771;28;20077;-67
2023/10/24 08:08:04;;;;;;;2.58;1.42;;;;;;;11.48;100.00;100023.34;5007304;28;20042;-67
2023/10/24 08:10:31;;;;;;;4.65;1.40;;;;;;;11.43;100.00;100020.50;5007312;28;20034;-67
2023/10/24 08:12:58;;;;;;;3.35;1.38;;;;;;;11.52;100.00;100029.78;4990500;28;20050;-67
2023/10/24 08:15:23;;;;;;;3.00;0.90;;;;;;;11.57;100.00;100027.47;4993096;28;20113;-67
2023/10/24 08:17:49;;;;;;;3.70;1.40;;;;;;;11.57;100.00;100022.28;5003538;28;20093;-67
2023/10/24 08:20:14;;;;;;;2.47;1.33;;;;;;;11.62;100.00;100024.31;5006320;28;20629;-67
2023/10/24 08:22:39;;;;;;;1.95;1.20;;;;;;;11.63;100.00;100031.13;4974548;28;20050;-67
2023/10/24 08:25:05;;;;;;;2.90;1.38;;;;;;;11.58;100.00;100028.25;5002437;28;20046;-67
2023/10/24 08:27:31;;;;;;;2.10;1.30;;;;;;;11.63;100.00;100031.13;5003271;28;20056;-67
2023/10/24 08:29:56;;;;;;;2.40;1.55;;;;;;;11.61;100.00;100040.91;4977254;28;20021;-67
2023/10/24 08:32:22;;;;;;;4.80;2.50;;;;;;;11.63;100.00;100044.91;5003518;28;20049;-67
2023/10/24 08:34:47;;;;;;;8.27;3.70;;;;;;;11.63;100.00;100052.69;5002773;28;20064;-67
2023/10/24 08:37:13;;;;;;;9.05;3.67;;;;;;;11.65;100.00;100048.13;4985949;28;20046;-67
2023/10/24 08:39:38;;;;;;;9.05;4.50;;;;;;;11.66;100.00;100048.97;5001329;28;20072;-67
2023/10/24 08:42:04;;;;;;;8.73;2.97;;;;;;;11.66;100.00;100051.56;5005319;28;20042;-67
2023/10/24 08:44:30;;;;;;;7.82;4.32;;;;;;;11.81;100.00;100054.94;4977764;28;20041;-67
2023/10/24 08:46:56;;;;;;;4.35;2.42;;;;;;;11.91;100.00;100059.88;5006153;28;20041;-67
2023/10/24 08:49:23;;;;;;;6.18;1.35;;;;;;;11.96;100.00;100056.72;4991292;28;20468;-67
2023/10/24 08:51:48;;;;;;;3.72;1.63;;;;;;;11.98;100.00;100054.72;4992029;28;20062;-67
2023/10/24 08:54:14;;;;;;;3.50;1.30;;;;;;;12.11;100.00;100064.47;5002996;28;20054;-67
2023/10/24 08:56:41;;;;;;;4.78;1.50;;;;;;;12.16;100.00;100070.72;5006771;28;20120;-67
2023/10/24 08:59:08;;;;;;;3.97;2.03;;;;;;;12.29;100.00;100058.88;5001009;28;20116;-67
2023/10/24 09:01:35;;;;;;;5.55;3.25;;;;;;;12.55;100.00;100055.72;5004057;28;20048;-67
2023/10/24 09:04:02;;;;;;;5.40;2.38;;;;;;;12.66;100.00;100050.81;5003237;28;20084;-67
2023/10/24 09:06:28;;;;;;;14.32;7.28;;;;;;;12.74;99.56;100036.06;5003612;28;20034;-67
2023/10/24 09:08:54;;;;;;;6.53;2.97;;;;;;;12.74;97.53;100039.47;5004482;28;20585;-67
2023/10/24 09:11:19;;;;;;;3.92;1.67;;;;;;;12.69;97.91;100041.00;4974347;28;20072;-67
2023/10/24 09:13:45;;;;;;;4.05;2.17;;;;;;;12.77;97.68;100036.50;5005724;28;20037;-67
2023/10/24 09:16:11;;;;;;;5.95;1.92;;;;;;;12.90;98.05;100032.34;5007225;28;20046;-67
2023/10/24 09:18:38;;;;;;;8.70;5.47;;;;;;;12.90;97.05;100033.16;5008045;28;20034;-67
2023/10/24 09:21:08;;;;;;;4.53;2.30;;;;;;;12.94;97.61;100028.38;4990456;28;20535;-67
2023/10/24 09:23:37;;;;;;;8.45;4.82;;;;;;;13.00;98.04;100017.22;5004911;28;20069;-67
2023/10/24 09:26:07;;;;;;;40.53;24.23;;;;;;;12.94;98.10;100018.78;5001106;28;20112;-67
2023/10/24 09:28:34;;;;;;;4.75;2.55;;;;;;;13.04;97.48;100021.06;5004276;28;20088;-67
2023/10/24 09:31:00;;;;;;;4.35;2.10;;;;;;;13.12;96.71;100018.28;4990305;28;20608;-67
2023/10/24 09:33:29;;;;;;;3.60;1.63;;;;;;;13.14;96.70;100018.91;5007753;28;20509;-67
2023/10/24 09:35:54;;;;;;;4.28;2.67;;;;;;;13.04;96.86;100015.84;4992177;28;20030;-67
2023/10/24 09:38:22;;;;;;;8.13;2.03;;;;;;;13.11;97.16;100008.91;5005848;28;20554;-67
2023/10/24 09:40:49;;;;;;;2.10;1.73;;;;;;;13.07;98.05;100006.84;4990253;28;20030;-67
2023/10/24 09:43:22;;;;;;;9.85;4.35;;;;;;;13.15;97.68;100012.72;5003374;28;20074;-67
2023/10/24 09:45:51;;;;;;;5.65;2.70;;;;;;;13.11;97.29;100011.50;5005315;28;20049;-67
2023/10/24 09:48:17;;;;;;;5.85;2.28;;;;;;;13.18;96.80;100011.53;5004109;28;20041;-67
2023/10/24 09:50:43;;;;;;;3.58;1.67;;;;;;;13.24;96.10;100008.97;5009347;28;20040;-67
2023/10/24 09:53:10;;;;;;;3.53;1.40;;;;;;;13.27;96.01;99999.94;5005934;28;20065;-67
2023/10/24 09:55:39;;;;;;;5.90;1.60;;;;;;;13.13;95.53;100009.50;5004218;28;20038;-67
2023/10/24 09:58:06;;;;;;;3.58;1.58;;;;;;;13.12;97.08;99997.47;5003025;28;20046;-67
2023/10/24 10:00:32;;;;;;;8.60;2.50;;;;;;;13.15;98.42;99998.91;5002975;28;20042;-67
2023/10/24 10:02:59;;;;;;;4.75;1.67;;;;;;;13.12;97.33;100002.69;5001791;28;20258;-67
2023/10/24 10:05:28;;;;;;;6.57;1.40;;;;;;;13.19;95.68;100002.72;4988131;28;20037;-67
2023/10/24 10:07:56;;;;;;;6.95;3.17;;;;;;;13.24;96.11;100000.31;5005575;28;20718;-67
2023/10/24 10:10:23;;;;;;;3.30;2.00;;;;;;;13.24;96.60;99989.91;5003881;28;20047;-67
2023/10/24 10:12:59;;;;;;;3.20;1.20;;;;;;;13.32;94.81;99982.00;5003498;28;20501;-67
2023/10/24 10:16:02;;;;;;;2.92;1.40;;;;;;;13.46;93.97;99990.66;4989411;28;20061;-67
2023/10/24 10:18:46;;;;;;;7.25;2.60;;;;;;;13.38;95.42;99994.22;5000697;28;20042;-67
2023/10/24 10:21:38;;;;;;;7.38;2.13;;;;;;;13.47;93.79;99997.47;5001408;28;20048;-67
2023/10/24 10:24:11;;;;;;;4.45;1.98;;;;;;;13.39;95.43;99993.25;4973074;28;20048;-67
2023/10/24 10:26:43;;;;;;;2.13;1.50;;;;;;;13.43;94.37;99984.03;5007658;28;20054;-67
2023/10/24 10:29:34;;;;;;;3.60;1.20;;;;;;;13.49;95.13;99973.84;5007599;28;20046;-67
2023/10/24 10:32:22;;;;;;;2.95;1.08;;;;;;;13.41;95.43;99975.63;5004874;28;20062;-68
2023/10/24 10:34:51;;;;;;;5.05;1.50;;;;;;;13.31;96.95;99976.97;5006623;28;20598;-67
2023/10/24 10:37:17;;;;;;;4.22;1.50;;;;;;;13.30;98.06;99973.56;5000516;28;20046;-67
2023/10/24 10:40:23;;;;;;;2.55;1.20;;;;;;;13.41;97.54;99978.22;5006730;28;20038;-67
2023/10/24 10:42:50;;;;;;;5.68;1.15;;;;;;;13.47;98.96;99979.25;4987103;28;20140;-67
2023/10/24 10:45:33;;;;;;;2.67;1.70;;;;;;;13.46;98.88;99966.41;4993140;28;20488;-68
2023/10/24 10:48:04;;;;;;;1.60;1.15;;;;;;;13.49;98.02;99958.22;5007499;28;20044;-70
2023/10/24 10:50:30;;;;;;;2.22;1.60;;;;;;;13.61;96.56;99967.88;5003487;28;20073;-68
2023/10/24 10:53:41;;;;;;;2.08;1.33;;;;;;;13.55;95.82;99971.25;5000243;28;20070;-68
2023/10/24 10:56:17;;;;;;;3.25;1.27;;;;;;;13.63;95.44;99972.88;4978480;28;20526;-68
2023/10/24 10:58:42;;;;;;;4.53;1.67;;;;;;;13.51;95.96;99974.47;5005353;28;20404;-68
2023/10/24 11:01:33;;;;;;;5.47;1.70;;;;;;;13.49;95.83;99982.47;5000216;28;20129;-68
2023/10/24 11:03:59;;;;;;;4.63;1.90;;;;;;;13.41;96.26;99978.22;4999213;28;20473;-68
2023/10/24 11:06:27;;;;;;;6.65;1.63;;;;;;;13.49;96.74;99973.84;4987891;28;20132;-68
2023/10/24 11:09:09;;;;;;;5.45;1.30;;;;;;;13.65;96.69;99973.47;4987105;28;20046;-68
2023/10/24 11:11:37;;;;;;;4.85;1.77;;;;;;;13.58;95.87;99976.09;5000866;28;20172;-68
2023/10/24 11:14:17;;;;;;;4.57;1.63;;;;;;;13.53;96.26;99972.47;4987333;28;20038;-68
2023/10/24 11:16:43;;;;;;;4.55;1.55;;;;;;;13.53;95.75;99962.84;5002839;28;20065;-69
2023/10/24 11:19:17;;;;;;;2.90;1.58;;;;;;;13.57;96.13;99971.88;4983869;28;20040;-68